Time;durP1;ratioP1;P1;durP2;ratioP2;P2;SDS_P1;SDS_P2;PMS_P1;PMS_P2;Temp;Humidity;BMP_temperature;BMP_pressure;BME280_temperature;BME280_humidity;BME280_pressure;Samples;Min_cycle;Max_cycle;Signal;HPM_P1;HPM_P2
2021/12/21 00:00:13;;;;;;;29.27;12.75;;;;;;;;;;5078846;27;91373;-71
2021/12/21 00:02:40;;;;;;;23.77;12.40;;;;;;;;;;5078019;27;92426;-71
2021/12/21 00:05:09;;;;;;;20.75;11.65;;;;;;;;;;5077802;27;93696;-71
2021/12/21 00:07:35;;;;;;;23.80;12.13;;;;;;;;;;5075623;27;95013;-71
2021/12/21 00:10:02;;;;;;;18.60;11.10;;;;;;;;;;5080724;27;92368;-71
2021/12/21 00:12:32;;;;;;;27.95;12.25;;;;;;;;;;5076939;27;94370;-71
2021/12/21 00:15:20;;;;;;;26.83;11.93;;;;;;;;;;5078117;27;92293;-71
2021/12/21 00:17:59;;;;;;;30.58;12.73;;;;;;;;;;5077446;27;93435;-71
2021/12/21 00:20:33;;;;;;;30.15;12.32;;;;;;;;;;5077312;27;93636;-71
2021/12/21 00:25:44;;;;;;;29.27;13.32;;;;;;;;;;5078066;27;94195;-70
2021/12/21 00:28:10;;;;;;;30.58;13.25;;;;;;;;;;5058989;27;95199;-71
2021/12/21 00:30:38;;;;;;;24.08;12.07;;;;;;;;;;5076413;27;92440;-72
2021/12/21 00:33:04;;;;;;;28.08;12.18;;;;;;;;;;5078937;27;94764;-72
2021/12/21 00:35:31;;;;;;;26.95;12.82;;;;;;;;;;5077561;27;92338;-71
2021/12/21 00:37:57;;;;;;;21.90;11.75;;;;;;;;;;5077042;27;93108;-71
2021/12/21 00:40:23;;;;;;;20.67;11.10;;;;;;;;;;5077191;27;93514;-71
2021/12/21 00:42:50;;;;;;;28.65;11.73;;;;;;;;;;5077150;27;92353;-72
2021/12/21 00:45:16;;;;;;;27.38;11.65;;;;;;;;;;5077205;27;93200;-71
2021/12/21 00:47:47;;;;;;;27.52;11.95;;;;;;;;;;5077236;27;93682;-71
2021/12/21 00:50:17;;;;;;;21.65;10.98;;;;;;;;;;5077729;27;91541;-71
2021/12/21 00:52:44;;;;;;;29.35;11.82;;;;;;;;;;5077196;27;92784;-71
2021/12/21 00:55:11;;;;;;;21.52;11.27;;;;;;;;;;5080050;27;93945;-70
2021/12/21 00:57:37;;;;;;;30.27;11.93;;;;;;;;;;5075296;27;94807;-71
2021/12/21 01:00:05;;;;;;;23.05;10.85;;;;;;;;;;5077259;27;93605;-71
2021/12/21 01:02:32;;;;;;;21.42;10.82;;;;;;;;;;5076972;27;92265;-71
2021/12/21 01:04:59;;;;;;;27.02;11.65;;;;;;;;;;5077179;27;93489;-72
2021/12/21 01:07:33;;;;;;;26.15;11.35;;;;;;;;;;5076995;27;92928;-71
2021/12/21 01:10:33;;;;;;;20.80;11.13;;;;;;;;;;5076550;27;92260;-71
2021/12/21 01:18:21;;;;;;;21.73;11.13;;;;;;;;;;5080465;27;92298;-71
2021/12/21 01:21:01;;;;;;;24.40;11.02;;;;;;;;;;5077834;27;93576;-71
2021/12/21 01:23:51;;;;;;;19.00;10.45;;;;;;;;;;5026222;27;94970;-71
2021/12/21 01:28:53;;;;;;;20.20;10.77;;;;;;;;;;5080983;27;92937;-72
2021/12/21 01:34:07;;;;;;;21.15;11.07;;;;;;;;;;5086359;27;92667;-71
2021/12/21 01:36:48;;;;;;;22.25;10.70;;;;;;;;;;5086237;27;93621;-71
2021/12/21 01:39:49;;;;;;;26.08;10.90;;;;;;;;;;5084017;27;92771;-71
2021/12/21 01:42:15;;;;;;;25.50;10.75;;;;;;;;;;5062396;27;96135;-71
2021/12/21 01:49:35;;;;;;;22.05;11.30;;;;;;;;;;5080473;27;92287;-71
2021/12/21 01:50:12;;;;;;;19.42;10.43;;;;;;;;;;5077960;27;96192;-71
2021/12/21 01:52:40;;;;;;;22.95;10.98;;;;;;;;;;5079835;27;92346;-71
2021/12/21 01:55:06;;;;;;;26.50;10.63;;;;;;;;;;5080254;27;92957;-71
2021/12/21 01:57:33;;;;;;;30.95;11.98;;;;;;;;;;5079850;27;92885;-72
2021/12/21 01:59:59;;;;;;;22.23;11.30;;;;;;;;;;5079806;27;92892;-70
2021/12/21 02:02:26;;;;;;;18.55;10.70;;;;;;;;;;5085802;27;94713;-71
2021/12/21 02:04:52;;;;;;;25.40;10.40;;;;;;;;;;5100553;27;92190;-71
2021/12/21 02:07:19;;;;;;;23.50;10.18;;;;;;;;;;5100812;27;93398;-71
2021/12/21 02:09:45;;;;;;;20.75;9.55;;;;;;;;;;5082306;27;93587;-71
2021/12/21 02:12:13;;;;;;;27.05;10.35;;;;;;;;;;5100907;27;92452;-71
2021/12/21 02:14:41;;;;;;;21.33;9.73;;;;;;;;;;5098408;27;94726;-71
2021/12/21 02:20:03;;;;;;;23.65;10.95;;;;;;;;;;5101066;27;92388;-71
2021/12/21 02:22:32;;;;;;;;;;;;;;;;;;5100794;27;92876;-72
2021/12/21 02:25:35;;;;;;;18.83;8.82;;;;;;;;;;5103041;27;120719;-71
2021/12/21 02:27:57;;;;;;;23.25;9.23;;;;;;;;;;5099249;27;93409;-71
2021/12/21 02:30:24;;;;;;;23.58;10.20;;;;;;;;;;5100778;27;93493;-70
2021/12/21 02:32:52;;;;;;;21.17;10.15;;;;;;;;;;5100577;27;92224;-71
2021/12/21 02:35:19;;;;;;;21.13;9.60;;;;;;;;;;5081681;27;93211;-71
2021/12/21 02:37:45;;;;;;;29.77;10.52;;;;;;;;;;5100359;27;93551;-71
2021/12/21 02:40:12;;;;;;;17.02;10.18;;;;;;;;;;5098372;27;94818;-71
2021/12/21 02:42:38;;;;;;;19.95;10.98;;;;;;;;;;5099887;27;95886;-71
2021/12/21 02:45:05;;;;;;;23.80;10.10;;;;;;;;;;5099743;27;93837;-72
2021/12/21 02:47:31;;;;;;;22.95;11.50;;;;;;;;;;5102920;27;92215;-72
2021/12/21 02:49:58;;;;;;;23.63;10.80;;;;;;;;;;5081639;27;93628;-69
2021/12/21 02:52:25;;;;;;;23.60;9.68;;;;;;;;;;5099713;27;92400;-71
2021/12/21 02:54:51;;;;;;;22.33;10.07;;;;;;;;;;5100618;27;93410;-72
2021/12/21 02:57:17;;;;;;;27.88;10.85;;;;;;;;;;5100011;27;93052;-72
2021/12/21 02:59:44;;;;;;;26.65;11.88;;;;;;;;;;5099784;27;92411;-71
2021/12/21 03:02:10;;;;;;;20.65;9.90;;;;;;;;;;5081551;27;93433;-71
2021/12/21 03:04:37;;;;;;;22.70;10.30;;;;;;;;;;5097987;27;96501;-71
2021/12/21 03:09:56;;;;;;;22.40;9.45;;;;;;;;;;5102445;27;93097;-72
2021/12/21 03:14:49;;;;;;;19.30;9.30;;;;;;;;;;5082028;27;96623;-71
2021/12/21 03:17:16;;;;;;;19.15;9.38;;;;;;;;;;5081514;27;93713;-72
2021/12/21 03:19:42;;;;;;;24.65;9.05;;;;;;;;;;5100022;27;92164;-71
2021/12/21 03:22:09;;;;;;;17.17;10.13;;;;;;;;;;5082691;27;94142;-71
2021/12/21 03:24:37;;;;;;;15.95;9.48;;;;;;;;;;5099597;27;93519;-71
2021/12/21 03:27:04;;;;;;;20.02;9.73;;;;;;;;;;5099899;27;92357;-71
2021/12/21 03:29:31;;;;;;;19.50;9.70;;;;;;;;;;5098353;27;94747;-72
2021/12/21 03:31:57;;;;;;;21.65;10.50;;;;;;;;;;5102447;27;93562;-71
2021/12/21 03:34:24;;;;;;;21.10;9.32;;;;;;;;;;5081519;27;93487;-71
2021/12/21 03:36:51;;;;;;;20.88;9.38;;;;;;;;;;5100757;27;93148;-71
2021/12/21 03:39:19;;;;;;;26.38;9.45;;;;;;;;;;5093586;27;92179;-71
2021/12/21 03:41:50;;;;;;;18.15;9.15;;;;;;;;;;5099599;27;92711;-71
2021/12/21 03:44:18;;;;;;;22.95;9.57;;;;;;;;;;5098461;27;93679;-72
2021/12/21 03:46:48;;;;;;;24.20;9.25;;;;;;;;;;5099921;27;91438;-71
2021/12/21 03:51:57;;;;;;;22.52;10.43;;;;;;;;;;5083788;27;95191;-71
2021/12/21 03:54:24;;;;;;;17.45;9.50;;;;;;;;;;5097388;27;94670;-71
2021/12/21 03:56:51;;;;;;;17.13;9.27;;;;;;;;;;5080507;27;94956;-72
2021/12/21 03:59:19;;;;;;;22.63;9.38;;;;;;;;;;5099451;27;92370;-71
2021/12/21 04:01:45;;;;;;;22.42;8.98;;;;;;;;;;5099448;27;93566;-71
2021/12/21 04:04:12;;;;;;;18.25;9.23;;;;;;;;;;5099123;27;93662;-71
2021/12/21 04:06:38;;;;;;;20.77;9.25;;;;;;;;;;5099290;27;92282;-71
2021/12/21 04:09:06;;;;;;;19.75;9.25;;;;;;;;;;5099437;27;93700;-71
2021/12/21 04:11:33;;;;;;;21.27;9.77;;;;;;;;;;5098929;27;93057;-71
2021/12/21 04:14:00;;;;;;;20.63;9.52;;;;;;;;;;5102437;27;92317;-71
2021/12/21 04:16:27;;;;;;;15.18;8.68;;;;;;;;;;5098813;27;92300;-71
2021/12/21 04:18:53;;;;;;;23.48;9.75;;;;;;;;;;5097595;27;94678;-71
2021/12/21 04:21:19;;;;;;;17.88;9.23;;;;;;;;;;5080986;27;95806;-71
2021/12/21 04:23:46;;;;;;;23.95;9.13;;;;;;;;;;5098830;27;94204;-71
2021/12/21 04:26:13;;;;;;;26.55;10.07;;;;;;;;;;5098896;27;92296;-71
2021/12/21 04:28:40;;;;;;;17.58;9.20;;;;;;;;;;5098459;27;92731;-71
2021/12/21 04:31:07;;;;;;;20.15;8.88;;;;;;;;;;5098902;27;93546;-70
2021/12/21 04:33:33;;;;;;;20.92;9.40;;;;;;;;;;5098994;27;92545;-71
2021/12/21 04:36:00;;;;;;;21.70;9.15;;;;;;;;;;5102140;27;92882;-71
2021/12/21 04:38:31;;;;;;;17.70;9.68;;;;;;;;;;5099004;27;92347;-72
2021/12/21 04:41:05;;;;;;;17.98;9.70;;;;;;;;;;5098559;27;93364;-72
2021/12/21 04:43:32;;;;;;;21.17;9.25;;;;;;;;;;5096765;27;95805;-71
2021/12/21 04:45:58;;;;;;;24.40;9.25;;;;;;;;;;5098649;27;92366;-71
2021/12/21 04:48:25;;;;;;;13.70;8.57;;;;;;;;;;5098453;27;93423;-71
2021/12/21 04:50:51;;;;;;;15.18;9.20;;;;;;;;;;5098542;27;93674;-71
2021/12/21 04:53:18;;;;;;;20.52;9.10;;;;;;;;;;5097835;27;92319;-71
2021/12/21 04:55:44;;;;;;;17.75;9.00;;;;;;;;;;5099335;27;93602;-70
2021/12/21 04:58:11;;;;;;;18.40;9.07;;;;;;;;;;5103685;27;93556;-70
2021/12/21 05:00:37;;;;;;;18.48;8.82;;;;;;;;;;5099074;27;93420;-70
2021/12/21 05:03:05;;;;;;;15.50;8.93;;;;;;;;;;5098315;27;93359;-70
2021/12/21 05:05:31;;;;;;;22.58;9.50;;;;;;;;;;5098357;27;92197;-70
2021/12/21 05:10:55;;;;;;;20.92;8.38;;;;;;;;;;5098556;27;93833;-70
2021/12/21 05:13:24;;;;;;;16.38;9.15;;;;;;;;;;5098350;27;92272;-70
2021/12/21 05:15:51;;;;;;;19.67;9.73;;;;;;;;;;5098332;27;92745;-70
2021/12/21 05:18:17;;;;;;;23.83;10.20;;;;;;;;;;5097736;27;93462;-70
2021/12/21 05:20:44;;;;;;;15.00;8.45;;;;;;;;;;5100768;27;93907;-70
2021/12/21 05:23:11;;;;;;;17.70;9.18;;;;;;;;;;5098372;27;93710;-71
2021/12/21 05:25:38;;;;;;;17.27;9.38;;;;;;;;;;5086522;27;91524;-70
2021/12/21 05:28:05;;;;;;;16.73;9.13;;;;;;;;;;5105240;27;92787;-71
2021/12/21 05:30:32;;;;;;;21.75;9.77;;;;;;;;;;5104647;27;93645;-70
2021/12/21 05:32:58;;;;;;;20.30;9.10;;;;;;;;;;5086539;27;94743;-71
2021/12/21 05:35:26;;;;;;;18.33;8.82;;;;;;;;;;5103242;27;95275;-70
2021/12/21 05:37:57;;;;;;;24.15;10.07;;;;;;;;;;5100470;27;93621;-71
2021/12/21 05:40:32;;;;;;;19.77;9.20;;;;;;;;;;5097681;27;94066;-69
2021/12/21 05:42:58;;;;;;;20.83;9.30;;;;;;;;;;5101611;27;92149;-73
2021/12/21 05:45:25;;;;;;;17.38;9.73;;;;;;;;;;5097992;27;92163;-72
2021/12/21 05:47:52;;;;;;;21.58;9.73;;;;;;;;;;5098164;27;92617;-72
2021/12/21 05:50:20;;;;;;;25.13;10.40;;;;;;;;;;5098337;27;92396;-71
2021/12/21 05:52:47;;;;;;;20.73;9.05;;;;;;;;;;5078603;27;92407;-72
2021/12/21 05:55:14;;;;;;;26.05;9.90;;;;;;;;;;5097934;27;93351;-72
2021/12/21 05:57:40;;;;;;;22.88;9.77;;;;;;;;;;5091649;27;96231;-72
2021/12/21 06:00:08;;;;;;;18.90;10.02;;;;;;;;;;5079107;27;92396;-72
2021/12/21 06:02:34;;;;;;;23.05;9.18;;;;;;;;;;5094997;27;92598;-71
2021/12/21 06:05:01;;;;;;;19.55;9.13;;;;;;;;;;5099526;27;92317;-73
2021/12/21 06:07:27;;;;;;;19.92;9.80;;;;;;;;;;5099796;27;93206;-73
2021/12/21 06:09:54;;;;;;;17.25;8.90;;;;;;;;;;5083041;27;93570;-74
2021/12/21 06:12:40;;;;;;;15.65;9.55;;;;;;;;;;5100915;27;92614;-73
2021/12/21 06:23:30;;;;;;;17.85;9.65;;;;;;;;;;5081064;27;95657;-71
2021/12/21 06:25:58;;;;;;;17.90;9.13;;;;;;;;;;5103328;27;93843;-72
2021/12/21 06:28:24;;;;;;;16.17;8.75;;;;;;;;;;5064115;27;92466;-72
2021/12/21 06:30:51;;;;;;;20.45;9.40;;;;;;;;;;5095963;27;92988;-71
2021/12/21 06:33:21;;;;;;;21.80;9.27;;;;;;;;;;5079883;27;92348;-72
2021/12/21 06:35:47;;;;;;;22.80;9.90;;;;;;;;;;5080039;27;92951;-71
2021/12/21 06:38:14;;;;;;;22.30;9.13;;;;;;;;;;5074578;27;93156;-72
2021/12/21 06:40:40;;;;;;;23.33;9.65;;;;;;;;;;5062721;27;91692;-71
2021/12/21 06:43:12;;;;;;;18.17;9.40;;;;;;;;;;5079540;27;92246;-72
2021/12/21 06:51:14;;;;;;;25.38;10.05;;;;;;;;;;5079491;27;93404;-72
2021/12/21 06:53:42;;;;;;;23.40;10.13;;;;;;;;;;5079091;27;92247;-72
2021/12/21 06:56:08;;;;;;;16.30;9.15;;;;;;;;;;5078653;27;92685;-72
2021/12/21 06:58:35;;;;;;;16.20;10.02;;;;;;;;;;5079399;27;93791;-72
2021/12/21 07:01:02;;;;;;;24.08;9.48;;;;;;;;;;5079091;27;92445;-72
2021/12/21 07:03:28;;;;;;;22.88;9.82;;;;;;;;;;5079842;27;93625;-72
2021/12/21 07:05:58;;;;;;;24.00;10.13;;;;;;;;;;5080091;27;92917;-72
2021/12/21 07:08:28;;;;;;;23.65;9.43;;;;;;;;;;5078630;27;93387;-72
2021/12/21 07:11:08;;;;;;;20.48;9.63;;;;;;;;;;5082293;27;93506;-71
2021/12/21 07:19:04;;;;;;;21.63;9.75;;;;;;;;;;5078168;27;93599;-73
2021/12/21 07:21:32;;;;;;;25.75;10.10;;;;;;;;;;5060877;27;92463;-72
2021/12/21 07:23:58;;;;;;;19.45;9.18;;;;;;;;;;5078651;27;93542;-72
2021/12/21 07:26:26;;;;;;;19.30;9.38;;;;;;;;;;5079311;27;93334;-72
2021/12/21 07:28:53;;;;;;;24.45;10.45;;;;;;;;;;5079273;27;92310;-71
2021/12/21 07:31:19;;;;;;;23.83;9.45;;;;;;;;;;5078977;27;94203;-71
2021/12/21 07:33:45;;;;;;;19.88;10.00;;;;;;;;;;5064109;27;93483;-71
2021/12/21 07:36:12;;;;;;;20.63;9.45;;;;;;;;;;5082165;27;92632;-72
2021/12/21 07:38:38;;;;;;;21.00;10.95;;;;;;;;;;5074559;27;94762;-71
2021/12/21 07:41:05;;;;;;;23.38;12.20;;;;;;;;;;5078388;27;92340;-71
2021/12/21 07:43:31;;;;;;;24.00;11.75;;;;;;;;;;5077914;27;93676;-71
2021/12/21 07:45:59;;;;;;;19.58;11.23;;;;;;;;;;5077744;27;93441;-71
2021/12/21 07:48:25;;;;;;;24.10;10.98;;;;;;;;;;5065608;27;92453;-74
2021/12/21 07:50:52;;;;;;;24.10;10.18;;;;;;;;;;5057387;27;93351;-71
2021/12/21 07:53:19;;;;;;;20.52;10.20;;;;;;;;;;5068387;27;93189;-71
2021/12/21 07:55:46;;;;;;;23.23;10.45;;;;;;;;;;5080020;27;92334;-71
2021/12/21 07:58:12;;;;;;;24.60;10.27;;;;;;;;;;5057368;27;93526;-71
2021/12/21 08:00:39;;;;;;;19.65;10.65;;;;;;;;;;5073365;27;92330;-72
2021/12/21 08:03:05;;;;;;;20.95;10.90;;;;;;;;;;5075461;27;94714;-71
2021/12/21 08:05:34;;;;;;;20.02;10.45;;;;;;;;;;5057487;27;93386;-71
2021/12/21 08:08:26;;;;;;;22.60;10.32;;;;;;;;;;5057436;27;92367;-71
2021/12/21 08:10:53;;;;;;;21.35;9.98;;;;;;;;;;5064874;27;93610;-71
2021/12/21 08:13:20;;;;;;;23.30;11.07;;;;;;;;;;5059315;27;92649;-72
2021/12/21 08:15:47;;;;;;;18.25;10.38;;;;;;;;;;5059862;27;92324;-73
2021/12/21 08:18:13;;;;;;;18.85;11.10;;;;;;;;;;5057246;27;93743;-72
2021/12/21 08:20:40;;;;;;;24.92;9.93;;;;;;;;;;5039567;27;91752;-72
2021/12/21 08:23:07;;;;;;;18.23;10.82;;;;;;;;;;5058106;27;92260;-72
2021/12/21 08:25:34;;;;;;;24.20;10.57;;;;;;;;;;5056901;27;93620;-72
2021/12/21 08:28:03;;;;;;;21.20;10.40;;;;;;;;;;5055211;27;94704;-71
2021/12/21 08:30:32;;;;;;;22.05;11.38;;;;;;;;;;5056815;27;95374;-71
2021/12/21 08:32:59;;;;;;;24.58;11.38;;;;;;;;;;5057059;27;93198;-71
2021/12/21 08:35:26;;;;;;;19.48;10.88;;;;;;;;;;5056998;27;92500;-71
2021/12/21 08:37:59;;;;;;;24.63;11.23;;;;;;;;;;5041634;27;94841;-71
2021/12/21 08:40:26;;;;;;;28.70;12.05;;;;;;;;;;5056886;27;92255;-70
2021/12/21 08:42:52;;;;;;;29.25;12.75;;;;;;;;;;5056619;27;92854;-70
2021/12/21 08:45:19;;;;;;;24.25;12.82;;;;;;;;;;5057046;27;92560;-72
2021/12/21 08:47:45;;;;;;;24.52;12.77;;;;;;;;;;5056706;27;92395;-71
2021/12/21 08:50:13;;;;;;;26.73;13.35;;;;;;;;;;5056600;27;93521;-72
2021/12/21 08:52:40;;;;;;;19.92;13.07;;;;;;;;;;5054834;27;95550;-71
2021/12/21 08:55:08;;;;;;;24.23;13.05;;;;;;;;;;5062332;27;92430;-73
2021/12/21 08:57:36;;;;;;;28.83;13.73;;;;;;;;;;5063452;27;92170;-70
2021/12/21 09:00:06;;;;;;;25.88;13.18;;;;;;;;;;5059494;27;93830;-71
2021/12/21 09:02:35;;;;;;;23.23;13.80;;;;;;;;;;5056607;27;93665;-72
2021/12/21 09:05:12;;;;;;;25.90;13.18;;;;;;;;;;5039576;27;93102;-72
2021/12/21 09:07:39;;;;;;;28.13;12.82;;;;;;;;;;5061879;27;92309;-73
2021/12/21 09:10:06;;;;;;;24.23;12.13;;;;;;;;;;5077244;27;93476;-72
2021/12/21 09:12:33;;;;;;;25.27;12.48;;;;;;;;;;5058287;27;95531;-73
2021/12/21 09:15:00;;;;;;;23.02;12.48;;;;;;;;;;5076898;27;92322;-72
2021/12/21 09:17:28;;;;;;;20.27;12.60;;;;;;;;;;5075356;27;94670;-72
2021/12/21 09:19:55;;;;;;;21.98;11.80;;;;;;;;;;5077812;27;93468;-74
2021/12/21 09:22:42;;;;;;;28.67;14.73;;;;;;;;;;5086757;27;92192;-72
2021/12/21 09:25:10;;;;;;;28.65;14.07;;;;;;;;;;5080016;27;93451;-72
2021/12/21 09:27:37;;;;;;;27.35;14.27;;;;;;;;;;5078925;27;92311;-70
2021/12/21 09:30:05;;;;;;;24.90;14.35;;;;;;;;;;5065207;27;92343;-73
2021/12/21 09:32:31;;;;;;;30.77;15.90;;;;;;;;;;5073116;27;93487;-73
2021/12/21 09:34:58;;;;;;;33.03;14.85;;;;;;;;;;5038384;27;91669;-73
2021/12/21 09:37:25;;;;;;;38.55;16.27;;;;;;;;;;5064841;27;92728;-72
2021/12/21 09:39:53;;;;;;;36.15;18.25;;;;;;;;;;5076468;27;92658;-72
2021/12/21 09:42:22;;;;;;;25.80;15.93;;;;;;;;;;5076708;27;95628;-72
2021/12/21 09:44:49;;;;;;;33.35;15.95;;;;;;;;;;5083022;27;94941;-73
2021/12/21 09:47:15;;;;;;;26.15;14.77;;;;;;;;;;5059606;27;92667;-74
2021/12/21 09:49:43;;;;;;;31.17;15.82;;;;;;;;;;5059530;27;93321;-73
2021/12/21 09:52:10;;;;;;;43.88;19.92;;;;;;;;;;5059455;27;93647;-72
2021/12/21 09:54:38;;;;;;;34.88;19.02;;;;;;;;;;5041736;27;92553;-71
2021/12/21 09:57:05;;;;;;;39.40;22.63;;;;;;;;;;5059494;27;93495;-74
2021/12/21 09:59:31;;;;;;;40.22;21.65;;;;;;;;;;5059200;27;92737;-72
2021/12/21 10:01:58;;;;;;;44.60;23.05;;;;;;;;;;5059023;27;92415;-72
2021/12/21 10:04:25;;;;;;;42.47;22.20;;;;;;;;;;5082851;27;93425;-73
2021/12/21 10:06:54;;;;;;;38.20;21.02;;;;;;;;;;5078048;27;94796;-74
2021/12/21 10:09:23;;;;;;;41.40;21.92;;;;;;;;;;5061535;27;96060;-72
2021/12/21 10:12:03;;;;;;;;;;;;;;;;;;5090784;27;93335;-72
2021/12/21 10:14:30;;;;;;;36.80;20.45;;;;;;;;;;5103621;27;119668;-73
2021/12/21 10:17:04;;;;;;;37.85;21.38;;;;;;;;;;5109402;27;92419;-73
2021/12/21 10:19:35;;;;;;;39.80;21.40;;;;;;;;;;5100213;27;93886;-72
2021/12/21 10:22:09;;;;;;;38.85;21.98;;;;;;;;;;5081608;27;92396;-73
2021/12/21 10:24:43;;;;;;;38.42;21.05;;;;;;;;;;5100447;27;93223;-73
2021/12/21 10:27:10;;;;;;;41.00;22.05;;;;;;;;;;5102529;27;93088;-73
2021/12/21 10:29:43;;;;;;;40.15;20.83;;;;;;;;;;5081581;27;93166;-75
2021/12/21 10:32:17;;;;;;;37.35;20.38;;;;;;;;;;5097902;27;96196;-72
2021/12/21 10:34:50;;;;;;;35.60;21.40;;;;;;;;;;5099559;27;92402;-73
2021/12/21 10:37:23;;;;;;;39.67;20.92;;;;;;;;;;5079304;27;93390;-72
2021/12/21 10:40:00;;;;;;;35.00;19.98;;;;;;;;;;5058912;27;92887;-73
2021/12/21 10:42:26;;;;;;;47.90;20.67;;;;;;;;;;5058954;27;92255;-73
2021/12/21 10:45:01;;;;;;;36.50;20.88;;;;;;;;;;5024219;27;93511;-74
2021/12/21 10:47:32;;;;;;;46.38;22.23;;;;;;;;;;5058396;27;92998;-74
2021/12/21 10:49:59;;;;;;;47.50;21.73;;;;;;;;;;5061943;27;91417;-75
2021/12/21 10:52:26;;;;;;;40.13;21.30;;;;;;;;;;5058703;27;93037;-75
2021/12/21 10:54:52;;;;;;;36.30;22.65;;;;;;;;;;5058324;27;92297;-74
2021/12/21 10:57:29;;;;;;;45.08;23.08;;;;;;;;;;5056960;27;94714;-75
2021/12/21 10:59:57;;;;;;;45.08;22.98;;;;;;;;;;5058375;27;93540;-76
2021/12/21 11:02:28;;;;;;;51.17;24.95;;;;;;;;;;5040400;27;92419;-76
2021/12/21 11:05:01;;;;;;;47.58;25.08;;;;;;;;;;5058287;27;93414;-74
2021/12/21 11:07:42;;;;;;;46.97;25.40;;;;;;;;;;5040135;27;96129;-74
2021/12/21 11:10:13;;;;;;;44.03;22.83;;;;;;;;;;5057851;27;92417;-74
2021/12/21 11:13:02;;;;;;;42.37;22.53;;;;;;;;;;5060598;27;92643;-73
2021/12/21 11:15:33;;;;;;;44.42;24.55;;;;;;;;;;5058699;27;92213;-74
2021/12/21 11:18:00;;;;;;;;;;;;;;;;;;5058714;27;92841;-74
2021/12/21 11:20:26;;;;;;;50.42;22.98;;;;;;;;;;5058047;27;123603;-74
2021/12/21 11:22:58;;;;;;;48.88;25.77;;;;;;;;;;5056617;27;94663;-74
2021/12/21 11:25:25;;;;;;;45.10;23.70;;;;;;;;;;5058357;27;95273;-75
2021/12/21 11:27:52;;;;;;;49.95;26.08;;;;;;;;;;5057864;27;93515;-74
2021/12/21 11:30:21;;;;;;;48.65;25.55;;;;;;;;;;5058021;27;92314;-74
2021/12/21 11:32:49;;;;;;;49.33;26.23;;;;;;;;;;5058260;27;92990;-72
2021/12/21 11:37:48;;;;;;;50.55;25.55;;;;;;;;;;5043690;27;93395;-73
2021/12/21 11:40:17;;;;;;;50.00;24.60;;;;;;;;;;5040319;27;92944;-72
2021/12/21 11:42:53;;;;;;;51.03;25.20;;;;;;;;;;5057850;27;92527;-73
2021/12/21 11:45:23;;;;;;;58.75;25.33;;;;;;;;;;5057942;27;93589;-74
2021/12/21 11:48:03;;;;;;;51.50;24.95;;;;;;;;;;5056228;27;95714;-75
2021/12/21 11:50:30;;;;;;;50.55;25.35;;;;;;;;;;5044114;27;93170;-73
2021/12/21 11:53:01;;;;;;;43.20;24.02;;;;;;;;;;5078395;27;93345;-74
2021/12/21 11:55:35;;;;;;;51.77;26.40;;;;;;;;;;5078109;27;93691;-82
2021/12/21 11:58:16;;;;;;;45.20;24.63;;;;;;;;;;5081499;27;92170;-75
2021/12/21 12:00:49;;;;;;;46.92;25.77;;;;;;;;;;5078065;27;93128;-73
2021/12/21 12:03:20;;;;;;;38.83;24.52;;;;;;;;;;5059615;27;92306;-75
2021/12/21 12:05:52;;;;;;;45.97;24.97;;;;;;;;;;5077864;27;93820;-74
2021/12/21 12:08:19;;;;;;;44.13;24.30;;;;;;;;;;5077950;27;93182;-75
2021/12/21 12:10:46;;;;;;;49.80;25.10;;;;;;;;;;5077739;27;92160;-74
2021/12/21 12:13:23;;;;;;;49.88;24.40;;;;;;;;;;5075547;27;94682;-74
2021/12/21 12:15:56;;;;;;;40.83;24.35;;;;;;;;;;5077497;27;93118;-76
2021/12/21 12:18:24;;;;;;;40.90;25.02;;;;;;;;;;5080748;27;92393;-77
2021/12/21 12:20:55;;;;;;;45.20;24.15;;;;;;;;;;5077587;27;94059;-81
2021/12/21 12:23:22;;;;;;;44.55;24.95;;;;;;;;;;5077896;27;92321;-75
2021/12/21 12:25:53;;;;;;;48.70;25.48;;;;;;;;;;5077435;27;93643;-75
2021/12/21 12:28:34;;;;;;;47.00;24.70;;;;;;;;;;5077375;27;92885;-73
2021/12/21 12:31:00;;;;;;;37.97;24.33;;;;;;;;;;5078028;27;91461;-74
2021/12/21 12:33:38;;;;;;;36.63;23.83;;;;;;;;;;5077809;27;93764;-73
2021/12/21 12:36:05;;;;;;;51.28;24.73;;;;;;;;;;5059436;27;93894;-76
2021/12/21 12:38:31;;;;;;;43.58;22.70;;;;;;;;;;5055131;27;94721;-76
2021/12/21 12:41:02;;;;;;;39.03;22.92;;;;;;;;;;5060107;27;95363;-75
2021/12/21 12:43:30;;;;;;;41.23;23.13;;;;;;;;;;5038751;27;92418;-75
2021/12/21 12:46:03;;;;;;;46.40;22.73;;;;;;;;;;5056802;27;93342;-77
2021/12/21 12:48:32;;;;;;;36.75;21.25;;;;;;;;;;5051671;27;92229;-75
2021/12/21 12:51:00;;;;;;;43.35;22.30;;;;;;;;;;5056463;27;92303;-75
2021/12/21 12:53:53;;;;;;;33.83;21.30;;;;;;;;;;5057002;27;93106;-75
2021/12/21 12:56:20;;;;;;;38.47;21.60;;;;;;;;;;5053804;27;93396;-75
2021/12/21 12:58:49;;;;;;;38.35;19.90;;;;;;;;;;5056782;27;92486;-74
2021/12/21 13:01:21;;;;;;;39.83;19.85;;;;;;;;;;5056773;27;93278;-75
2021/12/21 13:03:47;;;;;;;33.78;19.60;;;;;;;;;;5057952;27;96049;-76
2021/12/21 13:06:15;;;;;;;31.52;19.50;;;;;;;;;;5056804;27;96112;-76
2021/12/21 13:08:45;;;;;;;31.02;17.00;;;;;;;;;;5064803;27;92213;-76
2021/12/21 13:11:12;;;;;;;30.27;17.60;;;;;;;;;;5062203;27;92153;-76
2021/12/21 13:13:43;;;;;;;28.50;18.33;;;;;;;;;;5063629;27;93722;-78
2021/12/21 13:16:11;;;;;;;30.92;17.23;;;;;;;;;;5075357;27;92138;-76
2021/12/21 13:18:47;;;;;;;33.85;18.50;;;;;;;;;;5062626;27;92465;-77
2021/12/21 13:21:32;;;;;;;31.60;18.98;;;;;;;;;;5081465;27;93018;-76
2021/12/21 13:24:13;;;;;;;33.97;18.55;;;;;;;;;;5080426;27;93182;-76
2021/12/21 13:26:52;;;;;;;37.15;18.30;;;;;;;;;;5083528;27;92148;-75
2021/12/21 13:29:21;;;;;;;31.02;17.27;;;;;;;;;;5078804;27;95875;-74
2021/12/21 13:31:51;;;;;;;32.20;20.27;;;;;;;;;;5080625;27;92327;-75
2021/12/21 13:34:19;;;;;;;35.08;19.85;;;;;;;;;;5080700;27;93400;-77
2021/12/21 13:36:47;;;;;;;38.33;21.50;;;;;;;;;;5085690;27;93278;-75
2021/12/21 13:39:34;;;;;;;39.20;21.63;;;;;;;;;;5101115;27;92399;-76
2021/12/21 13:42:11;;;;;;;43.13;22.45;;;;;;;;;;5100791;27;92886;-75
2021/12/21 13:44:40;;;;;;;31.88;20.00;;;;;;;;;;5100515;27;93899;-76
2021/12/21 13:47:24;;;;;;;32.00;18.77;;;;;;;;;;5101097;27;91434;-78
2021/12/21 13:49:51;;;;;;;34.20;18.70;;;;;;;;;;5103615;27;92242;-75
2021/12/21 13:52:20;;;;;;;34.55;17.60;;;;;;;;;;5099659;27;92336;-76
2021/12/21 13:54:48;;;;;;;30.35;17.15;;;;;;;;;;5078321;27;94713;-76
2021/12/21 13:57:18;;;;;;;28.98;16.98;;;;;;;;;;5079684;27;93474;-77
2021/12/21 13:59:47;;;;;;;30.65;16.35;;;;;;;;;;5079865;27;92342;-77
2021/12/21 14:02:18;;;;;;;31.77;16.83;;;;;;;;;;5080184;27;92870;-77
2021/12/21 14:04:58;;;;;;;30.45;15.65;;;;;;;;;;5079676;27;93533;-77
2021/12/21 14:07:25;;;;;;;30.67;15.93;;;;;;;;;;5061553;27;92297;-77
2021/12/21 14:10:25;;;;;;;27.33;15.73;;;;;;;;;;5057504;27;92907;-76
2021/12/21 14:12:59;;;;;;;29.88;16.20;;;;;;;;;;5008645;27;93290;-75
2021/12/21 14:15:39;;;;;;;24.88;15.40;;;;;;;;;;5078489;27;92699;-75
2021/12/21 14:18:19;;;;;;;27.08;15.57;;;;;;;;;;5078603;27;93571;-76
2021/12/21 14:20:47;;;;;;;23.73;14.23;;;;;;;;;;5075466;27;94740;-75
2021/12/21 14:23:19;;;;;;;24.77;14.32;;;;;;;;;;5078480;27;95979;-75
2021/12/21 14:25:46;;;;;;;22.45;14.63;;;;;;;;;;5078262;27;93729;-74
2021/12/21 14:28:15;;;;;;;26.77;16.25;;;;;;;;;;5078274;27;92603;-74
2021/12/21 14:30:41;;;;;;;26.52;16.65;;;;;;;;;;5078382;27;92816;-74
2021/12/21 14:33:20;;;;;;;25.17;16.33;;;;;;;;;;5080570;27;93881;-73
2021/12/21 14:35:47;;;;;;;27.63;16.05;;;;;;;;;;5060693;27;93204;-76
2021/12/21 14:38:16;;;;;;;29.52;15.73;;;;;;;;;;5096796;27;92631;-77
2021/12/21 14:40:44;;;;;;;30.95;16.05;;;;;;;;;;5098900;27;92243;-77
2021/12/21 14:43:18;;;;;;;30.20;16.63;;;;;;;;;;5098913;27;93060;-76
2021/12/21 14:45:46;;;;;;;27.35;16.15;;;;;;;;;;5096192;27;96129;-75
2021/12/21 14:48:19;;;;;;;28.00;15.38;;;;;;;;;;5098726;27;93193;-75
2021/12/21 14:50:49;;;;;;;23.83;15.27;;;;;;;;;;5098568;27;93740;-79
2021/12/21 14:53:17;;;;;;;26.77;15.18;;;;;;;;;;5088983;27;93051;-78
2021/12/21 14:55:43;;;;;;;26.20;15.80;;;;;;;;;;5084685;27;92843;-78
2021/12/21 14:58:14;;;;;;;29.35;16.63;;;;;;;;;;5063432;27;92688;-80
2021/12/21 15:00:47;;;;;;;28.98;15.50;;;;;;;;;;5058321;27;92334;-75
2021/12/21 15:03:16;;;;;;;26.10;15.13;;;;;;;;;;5057775;27;93655;-77
2021/12/21 15:05:43;;;;;;;24.55;15.43;;;;;;;;;;5065316;27;93467;-77
2021/12/21 15:08:11;;;;;;;26.33;16.33;;;;;;;;;;5077673;27;92426;-78
2021/12/21 15:10:42;;;;;;;26.20;16.58;;;;;;;;;;5075685;27;94682;-77
2021/12/21 15:13:09;;;;;;;27.65;16.23;;;;;;;;;;5038246;27;1114167;-76
2021/12/21 15:15:36;;;;;;;24.08;16.17;;;;;;;;;;5078695;27;92425;-77
2021/12/21 15:18:03;;;;;;;23.05;16.05;;;;;;;;;;5081744;27;93314;-76
2021/12/21 15:20:30;;;;;;;31.08;16.73;;;;;;;;;;5078485;27;92354;-77
2021/12/21 15:22:57;;;;;;;26.30;16.02;;;;;;;;;;5078805;27;92965;-78
2021/12/21 15:25:23;;;;;;;25.77;16.05;;;;;;;;;;5078345;27;94048;-78